createdAt,value
2022-10-18T01:02:11.422Z,101079.69
2022-10-18T01:04:39.663Z,101075.80
2022-10-18T01:07:43.063Z,101074.91
2022-10-18T01:10:18.746Z,101069.45
2022-10-18T01:13:25.726Z,101071.56
2022-10-18T01:16:02.723Z,101071.20
2022-10-18T01:18:40.800Z,101071.90
2022-10-18T01:21:09.714Z,101072.92
2022-10-18T01:24:07.043Z,101073.74
2022-10-18T01:27:05.170Z,101070.23
2022-10-18T01:29:49.457Z,101066.15
2022-10-18T01:32:21.944Z,101064.07
2022-10-18T01:34:54.814Z,101063.42
2022-10-18T01:37:22.869Z,101062.27
2022-10-18T01:39:56.000Z,101062.80
2022-10-18T01:42:24.731Z,101059.20
2022-10-18T01:44:53.683Z,101059.79
2022-10-18T01:47:21.819Z,101062.17
2022-10-18T01:49:49.752Z,101060.65
2022-10-18T01:52:17.409Z,101057.67
2022-10-18T01:54:51.154Z,101056.80
2022-10-18T01:57:36.873Z,101053.70
2022-10-18T02:00:16.196Z,101056.14
2022-10-18T02:03:09.266Z,101053.61
2022-10-18T02:05:47.130Z,101052.55
2022-10-18T02:08:29.967Z,101051.25
2022-10-18T02:11:05.513Z,101051.90
2022-10-18T02:13:38.939Z,101052.25
2022-10-18T02:16:13.547Z,101054.08
2022-10-18T02:18:46.904Z,101056.55
2022-10-18T02:21:19.047Z,101058.66
2022-10-18T02:23:47.551Z,101054.11
2022-10-18T02:26:16.073Z,101049.99
2022-10-18T02:28:45.701Z,101058.21
2022-10-18T02:31:27.164Z,101056.08
2022-10-18T02:34:21.473Z,101051.16
2022-10-18T02:37:00.843Z,101051.95
2022-10-18T02:39:36.943Z,101052.73
2022-10-18T02:42:09.297Z,101053.34
2022-10-18T02:44:38.293Z,101049.04
2022-10-18T02:47:07.716Z,101051.71
2022-10-18T02:49:35.333Z,101051.08
2022-10-18T02:52:03.260Z,101053.52
2022-10-18T02:54:31.301Z,101052.61
2022-10-18T02:56:58.917Z,101051.72
2022-10-18T02:59:26.721Z,101060.72
2022-10-18T03:01:54.702Z,101062.69
2022-10-18T03:04:22.466Z,101066.39
2022-10-18T03:06:50.201Z,101069.38
2022-10-18T03:09:18.013Z,101074.05
2022-10-18T03:11:45.651Z,101075.11
2022-10-18T03:14:13.342Z,101072.62
2022-10-18T03:16:41.385Z,101074.11
2022-10-18T03:19:09.311Z,101079.94
2022-10-18T03:21:36.963Z,101080.26
2022-10-18T03:24:05.311Z,101079.61
2022-10-18T03:26:32.966Z,101079.41
2022-10-18T03:29:00.638Z,101082.39
2022-10-18T03:31:28.549Z,101085.71
2022-10-18T03:33:56.105Z,101086.15
2022-10-18T03:36:24.049Z,101088.30
2022-10-18T03:38:51.875Z,101092.08
2022-10-18T03:41:20.757Z,101090.38
2022-10-18T03:43:48.580Z,101095.80
2022-10-18T03:46:16.528Z,101091.77
2022-10-18T03:48:44.116Z,101094.84
2022-10-18T03:51:11.686Z,101096.55
2022-10-18T03:53:39.432Z,101100.17
2022-10-18T03:56:07.151Z,101105.73
2022-10-18T03:58:36.203Z,101103.07
2022-10-18T04:01:04.237Z,101100.36
2022-10-18T04:03:31.802Z,101104.59
2022-10-18T04:06:00.870Z,101108.87
2022-10-18T04:08:28.616Z,101106.65
2022-10-18T04:10:56.205Z,101105.52
2022-10-18T04:13:23.862Z,101109.59
2022-10-18T04:15:51.729Z,101108.36
2022-10-18T04:18:19.373Z,101110.73
2022-10-18T04:20:47.096Z,101111.16
2022-10-18T04:23:15.311Z,101111.36
2022-10-18T04:28:15.942Z,101114.02
2022-10-18T04:30:43.609Z,101112.46
2022-10-18T04:33:11.278Z,101116.68
2022-10-18T04:35:39.348Z,101111.38
2022-10-18T04:38:06.974Z,101108.58
2022-10-18T04:40:34.756Z,101111.92
2022-10-18T04:43:03.035Z,101112.90
2022-10-18T04:45:30.801Z,101114.95
2022-10-18T04:47:58.414Z,101112.40
2022-10-18T04:50:26.537Z,101109.84
2022-10-18T04:52:54.142Z,101109.34
2022-10-18T04:55:21.936Z,101107.00
2022-10-18T04:57:50.068Z,101112.46
2022-10-18T05:00:18.252Z,101107.27
2022-10-18T05:02:45.828Z,101106.84
2022-10-18T05:05:14.413Z,101106.65
2022-10-18T05:07:42.295Z,101108.52
2022-10-18T05:10:10.467Z,101103.36
2022-10-18T05:12:38.605Z,101106.41
2022-10-18T05:15:06.610Z,101105.15
2022-10-18T05:17:34.243Z,101103.19
2022-10-18T05:20:02.310Z,101101.66
2022-10-18T05:22:30.911Z,101102.48
2022-10-18T05:24:58.833Z,101103.95
2022-10-18T05:27:28.111Z,101106.25
2022-10-18T05:29:57.149Z,101105.00
2022-10-18T05:32:26.635Z,101099.05
2022-10-18T05:34:54.399Z,101101.16
2022-10-18T05:37:27.501Z,101101.18
2022-10-18T05:39:56.214Z,101104.54
2022-10-18T05:42:23.985Z,101107.02
2022-10-18T05:44:51.573Z,101109.80
2022-10-18T05:47:20.377Z,101103.55
2022-10-18T05:49:48.291Z,101101.79
2022-10-18T05:52:17.127Z,101102.37
2022-10-18T05:54:45.055Z,101099.73
2022-10-18T05:57:13.004Z,101099.89
2022-10-18T05:59:40.632Z,101098.42
2022-10-18T06:02:11.470Z,101096.62
2022-10-18T06:04:41.399Z,101098.16
2022-10-18T06:07:12.871Z,101099.70
2022-10-18T06:09:41.624Z,101105.98
2022-10-18T06:12:09.294Z,101110.48
2022-10-18T06:14:37.677Z,101109.40
2022-10-18T06:17:05.458Z,101108.77
2022-10-18T06:19:33.215Z,101110.17
2022-10-18T06:22:02.092Z,101110.80
2022-10-18T06:24:30.229Z,101114.74
2022-10-18T06:26:57.896Z,101115.29
2022-10-18T06:29:25.751Z,101116.10
2022-10-18T06:31:54.356Z,101114.79
2022-10-18T06:34:22.054Z,101117.19
2022-10-18T06:36:50.902Z,101114.67
2022-10-18T06:39:20.739Z,101112.02
2022-10-18T06:41:48.524Z,101112.90
2022-10-18T06:44:22.386Z,101110.45
2022-10-18T06:46:51.589Z,101106.21
2022-10-18T06:49:19.913Z,101111.31
2022-10-18T06:51:47.877Z,101111.64
2022-10-18T06:54:18.518Z,101114.07
2022-10-18T06:56:46.791Z,101112.69
2022-10-18T06:59:14.935Z,101115.44
2022-10-18T07:01:43.581Z,101118.05
2022-10-18T07:04:11.380Z,101123.96
2022-10-18T07:06:39.042Z,101122.30
2022-10-18T07:09:06.700Z,101124.23
2022-10-18T07:11:34.363Z,101123.88
2022-10-18T07:14:04.876Z,101125.75
2022-10-18T07:16:33.592Z,101126.86
2022-10-18T07:19:01.424Z,101127.64
2022-10-18T07:21:29.105Z,101124.67
2022-10-18T07:23:57.017Z,101128.09
2022-10-18T07:26:32.322Z,101126.16
2022-10-18T07:29:09.205Z,101126.45
2022-10-18T07:31:38.650Z,101132.39
2022-10-18T07:34:08.089Z,101133.01
2022-10-18T07:36:35.721Z,101135.16
2022-10-18T07:39:04.135Z,101135.67
2022-10-18T07:41:34.285Z,101137.95
2022-10-18T07:44:03.979Z,101137.40
2022-10-18T07:46:32.214Z,101140.20
2022-10-18T07:48:59.959Z,101138.39
2022-10-18T07:51:28.216Z,101139.05
2022-10-18T07:53:55.945Z,101140.18
2022-10-18T07:56:23.905Z,101142.18
2022-10-18T07:58:53.413Z,101133.13
2022-10-18T08:01:23.268Z,101130.45
2022-10-18T08:03:52.143Z,101122.02
2022-10-18T08:06:21.182Z,101122.35
2022-10-18T08:08:49.284Z,101126.31
2022-10-18T08:11:19.962Z,101123.23
2022-10-18T08:13:47.786Z,101118.88
2022-10-18T08:16:18.583Z,101114.82
2022-10-18T08:18:48.397Z,101114.81
2022-10-18T08:21:20.872Z,101109.88
2022-10-18T08:23:50.985Z,101102.00
2022-10-18T08:26:24.819Z,101098.87
2022-10-18T08:28:58.325Z,101097.20
2022-10-18T08:31:37.783Z,101089.91
2022-10-18T08:34:06.074Z,101090.69
2022-10-18T08:36:34.028Z,101083.01
2022-10-18T08:39:03.192Z,101082.10
2022-10-18T08:41:48.107Z,101080.77
2022-10-18T08:44:28.927Z,101077.77
2022-10-18T08:47:03.174Z,101071.40
2022-10-18T08:50:06.230Z,101068.70
2022-10-18T08:53:00.838Z,101067.91
2022-10-18T08:55:54.903Z,101068.59
2022-10-18T08:58:26.730Z,101067.27
2022-10-18T09:01:00.691Z,101062.40
2022-10-18T09:04:00.844Z,101058.73
2022-10-18T09:06:36.629Z,101057.32
2022-10-18T09:09:33.190Z,101058.32
2022-10-18T09:12:37.137Z,101063.73
2022-10-18T09:15:53.208Z,101058.63
2022-10-18T09:18:26.911Z,101045.61
2022-10-18T09:21:24.283Z,101037.21
2022-10-18T09:24:07.393Z,101028.20
2022-10-18T09:26:45.101Z,101018.98
2022-10-18T09:29:49.343Z,101015.48
2022-10-18T09:32:38.924Z,101011.90
2022-10-18T09:35:18.646Z,101002.50
2022-10-18T09:37:47.729Z,100998.55
2022-10-18T09:40:26.935Z,100992.59
2022-10-18T09:43:00.554Z,100992.98
2022-10-18T09:45:48.132Z,100989.23
2022-10-18T09:48:22.912Z,100989.27
2022-10-18T09:51:11.581Z,100992.28
2022-10-18T09:53:58.036Z,100986.16
2022-10-18T09:56:39.396Z,100979.05
2022-10-18T09:59:27.813Z,100976.28
2022-10-18T10:01:55.894Z,100975.70
2022-10-18T10:04:23.699Z,100973.90
2022-10-18T10:06:57.564Z,100969.52
2022-10-18T10:09:55.633Z,100965.05
2022-10-18T10:12:29.448Z,100955.41
2022-10-18T10:15:16.461Z,100944.38
2022-10-18T10:17:44.681Z,100937.45
2022-10-18T10:20:22.027Z,100943.18
2022-10-18T10:22:51.931Z,100940.31
2022-10-18T10:25:41.084Z,100933.83
2022-10-18T10:28:19.154Z,100929.78
2022-10-18T10:30:50.456Z,100928.95
2022-10-18T10:33:37.232Z,100928.36
2022-10-18T10:36:19.194Z,100933.45
2022-10-18T10:39:12.395Z,100944.59
2022-10-18T10:41:41.799Z,100934.94
2022-10-18T10:44:18.433Z,100929.40
2022-10-18T10:46:51.105Z,100934.16
2022-10-18T10:49:40.238Z,100925.41
2022-10-18T10:52:29.051Z,100920.73
2022-10-18T10:55:06.158Z,100913.52
2022-10-18T10:57:47.370Z,100915.75
2022-10-18T11:00:35.564Z,100914.47
2022-10-18T11:03:29.991Z,100903.80
2022-10-18T11:06:01.032Z,100905.72
2022-10-18T11:08:41.624Z,100903.45
2022-10-18T11:11:22.853Z,100899.95
2022-10-18T11:14:25.612Z,100896.39
2022-10-18T11:17:08.171Z,100896.76
2022-10-18T11:19:52.700Z,100894.02
2022-10-18T11:22:25.300Z,100888.34
2022-10-18T11:24:53.285Z,100886.98
2022-10-18T11:27:30.439Z,100887.06
2022-10-18T11:30:23.265Z,100881.69
2022-10-18T11:33:26.262Z,100875.75
2022-10-18T11:36:09.106Z,100866.42
2022-10-18T11:38:52.289Z,100861.70
2022-10-18T11:41:42.234Z,100858.19
2022-10-18T11:44:23.520Z,100844.24
2022-10-18T11:47:00.137Z,100829.09
2022-10-18T11:50:02.158Z,100818.38
2022-10-18T11:53:03.173Z,100817.53
2022-10-18T11:55:37.112Z,100826.55
2022-10-18T11:58:08.816Z,100824.11
2022-10-18T12:00:51.045Z,100814.79
2022-10-18T12:03:26.775Z,100810.15
2022-10-18T12:05:58.349Z,100807.84
2022-10-18T12:08:38.664Z,100803.78
2022-10-18T12:11:13.181Z,100802.44
2022-10-18T12:13:53.315Z,100794.03
2022-10-18T12:16:45.569Z,100780.33
2022-10-18T12:19:33.110Z,100784.02
2022-10-18T12:22:29.598Z,100776.94
2022-10-18T12:24:58.132Z,100765.73
2022-10-18T12:27:39.853Z,100761.35
2022-10-18T12:30:20.241Z,100759.63
2022-10-18T12:33:03.381Z,100757.66
2022-10-18T12:36:09.138Z,100760.55
2022-10-18T12:38:41.029Z,100752.67
2022-10-18T12:41:19.826Z,100747.84
2022-10-18T12:44:07.188Z,100749.65
2022-10-18T12:46:58.443Z,100754.38
2022-10-18T12:49:33.160Z,100755.10
2022-10-18T12:52:04.307Z,100748.52
2022-10-18T12:54:35.748Z,100740.99
2022-10-18T12:57:06.339Z,100734.02
2022-10-18T12:59:34.210Z,100725.93
2022-10-18T13:02:05.000Z,100722.24
2022-10-18T13:04:36.437Z,100715.87
2022-10-18T13:07:10.443Z,100709.05
2022-10-18T13:09:40.504Z,100710.30
2022-10-18T13:12:11.029Z,100717.00
2022-10-18T13:14:49.373Z,100710.02
2022-10-18T13:17:43.881Z,100714.34
2022-10-18T13:20:27.690Z,100715.80
2022-10-18T13:23:11.778Z,100715.25
2022-10-18T13:25:55.124Z,100707.90
2022-10-18T13:28:52.543Z,100711.95
2022-10-18T13:31:45.110Z,100711.58
2022-10-18T13:34:22.718Z,100704.87
2022-10-18T13:37:02.853Z,100706.79
2022-10-18T13:39:32.209Z,100712.98
2022-10-18T13:42:00.761Z,100712.08
2022-10-18T13:44:31.902Z,100713.27
2022-10-18T13:46:59.613Z,100704.71
2022-10-18T13:49:39.388Z,100712.52
2022-10-18T13:52:35.961Z,100708.66
2022-10-18T13:55:36.199Z,100713.92
2022-10-18T13:58:49.192Z,100724.62
2022-10-18T14:01:42.446Z,100756.62
2022-10-18T14:04:37.938Z,100774.02
2022-10-18T14:07:07.857Z,100779.14
2022-10-18T14:09:45.272Z,100781.27
2022-10-18T14:12:29.126Z,100784.31
2022-10-18T14:15:05.369Z,100803.39
2022-10-18T14:17:44.477Z,100809.00
2022-10-18T14:20:28.607Z,100812.05
2022-10-18T14:23:12.546Z,100826.90
2022-10-18T14:25:40.195Z,100828.27
2022-10-18T14:28:15.507Z,100839.04
2022-10-18T14:30:57.959Z,100830.88
2022-10-18T14:33:34.241Z,100849.14
2022-10-18T14:36:15.383Z,100851.70
2022-10-18T14:38:46.761Z,100850.63
2022-10-18T14:41:16.206Z,100855.48
2022-10-18T14:43:44.501Z,100868.63
2022-10-18T14:46:24.245Z,100866.66
2022-10-18T14:49:00.934Z,100877.40
2022-10-18T14:51:34.106Z,100871.55
2022-10-18T14:54:02.637Z,100884.17
2022-10-18T14:56:37.286Z,100886.53
2022-10-18T14:59:13.240Z,100896.11
2022-10-18T15:01:41.112Z,100884.23
2022-10-18T15:04:11.822Z,100887.55
2022-10-18T15:06:44.194Z,100894.98
2022-10-18T15:09:14.743Z,100903.81
2022-10-18T15:11:45.680Z,100906.92
2022-10-18T15:14:16.029Z,100912.42
2022-10-18T15:16:44.025Z,100914.20
2022-10-18T15:19:14.705Z,100910.29
2022-10-18T15:22:30.944Z,100907.02
2022-10-18T15:25:31.576Z,100909.02
2022-10-18T15:28:01.228Z,100907.90
2022-10-18T15:30:30.251Z,100916.84
2022-10-18T15:32:59.190Z,100920.17
2022-10-18T15:35:38.419Z,100920.42
2022-10-18T15:38:21.387Z,100928.68
2022-10-18T15:40:49.194Z,100935.38
2022-10-18T15:43:22.901Z,100942.75
2022-10-18T15:45:53.531Z,100947.15
2022-10-18T15:48:23.243Z,100951.66
2022-10-18T15:50:58.040Z,100951.83
2022-10-18T15:53:32.939Z,100952.78
2022-10-18T15:56:12.810Z,100953.19
2022-10-18T15:58:44.101Z,100951.67
2022-10-18T16:01:24.391Z,100947.84
2022-10-18T16:03:52.474Z,100944.56
2022-10-18T16:06:21.453Z,100947.92
2022-10-18T16:08:52.546Z,100944.84
2022-10-18T16:11:23.698Z,100945.91
2022-10-18T16:13:56.383Z,100955.31
2022-10-18T16:16:29.048Z,100961.43
2022-10-18T16:18:57.585Z,100966.90
2022-10-18T16:21:31.438Z,100973.06
2022-10-18T16:23:59.970Z,100970.46
2022-10-18T16:26:28.613Z,100975.58
2022-10-18T16:28:58.076Z,100980.16
2022-10-18T16:31:28.903Z,100987.01
2022-10-18T16:33:56.968Z,100989.45
2022-10-18T16:36:31.271Z,100999.88
2022-10-18T16:39:03.190Z,101003.22
2022-10-18T16:41:31.276Z,101001.66
2022-10-18T16:43:59.143Z,100998.98
2022-10-18T16:46:30.259Z,101003.61
2022-10-18T16:48:58.531Z,101005.38
2022-10-18T16:51:26.380Z,101004.35
2022-10-18T16:53:55.679Z,100999.17
2022-10-18T16:56:25.849Z,101001.09
2022-10-18T16:58:53.619Z,101002.48
2022-10-18T17:01:23.766Z,101003.88
2022-10-18T17:03:52.331Z,101010.56
2022-10-18T17:06:26.507Z,101017.86
2022-10-18T17:08:54.997Z,101021.85
2022-10-18T17:11:25.460Z,101026.02
2022-10-18T17:13:53.789Z,101031.52
2022-10-18T17:19:04.967Z,101036.05
2022-10-18T17:21:33.605Z,101038.67
2022-10-18T17:24:03.125Z,101035.33
2022-10-18T17:26:31.492Z,101037.39
2022-10-18T17:29:04.642Z,101038.96
2022-10-18T17:31:33.170Z,101042.80
2022-10-18T17:34:02.078Z,101046.15
2022-10-18T17:36:31.701Z,101055.85
2022-10-18T17:38:59.878Z,101064.13
2022-10-18T17:41:27.883Z,101071.06
2022-10-18T17:43:55.560Z,101078.30
2022-10-18T17:46:23.832Z,101082.38
2022-10-18T17:48:51.773Z,101082.76
2022-10-18T17:51:19.395Z,101073.63
2022-10-18T17:53:47.255Z,101072.73
2022-10-18T17:56:16.117Z,101070.07
2022-10-18T17:58:43.784Z,101071.50
2022-10-18T18:01:19.335Z,101073.27
2022-10-18T18:03:50.537Z,101071.69
2022-10-18T18:06:30.746Z,101074.02
2022-10-18T18:09:00.835Z,101072.09
2022-10-18T18:11:29.046Z,101080.77
2022-10-18T18:13:57.621Z,101077.46
2022-10-18T18:16:28.318Z,101071.00
2022-10-18T18:18:58.247Z,101072.11
2022-10-18T18:21:26.691Z,101071.66
2022-10-18T18:23:54.860Z,101070.52
2022-10-18T18:26:23.827Z,101070.74
2022-10-18T18:28:52.194Z,101067.83
2022-10-18T18:31:25.891Z,101072.45
2022-10-18T18:33:55.813Z,101069.15
2022-10-18T18:36:28.696Z,101072.80
2022-10-18T18:38:57.806Z,101075.83
2022-10-18T18:41:26.199Z,101075.69
2022-10-18T18:43:58.601Z,101077.46
2022-10-18T18:46:28.926Z,101078.67
2022-10-18T18:48:57.446Z,101077.81
2022-10-18T18:51:25.881Z,101077.70
2022-10-18T18:53:53.604Z,101075.84
2022-10-18T18:56:24.036Z,101075.73
2022-10-18T18:58:52.929Z,101077.05
2022-10-18T19:01:24.193Z,101071.90
2022-10-18T19:03:53.871Z,101072.90
2022-10-18T19:06:27.775Z,101074.40
2022-10-18T19:09:04.529Z,101078.55
2022-10-18T19:11:35.592Z,101077.75
2022-10-18T19:14:04.253Z,101070.75
2022-10-18T19:16:34.897Z,101072.96
2022-10-18T19:19:14.021Z,101070.70
2022-10-18T19:21:49.179Z,101069.29
2022-10-18T19:24:17.119Z,101072.40
2022-10-18T19:27:04.398Z,101073.02
2022-10-18T19:29:34.749Z,101070.77
2022-10-18T19:32:05.834Z,101073.41
2022-10-18T19:34:37.191Z,101074.81
2022-10-18T19:37:04.899Z,101075.01
2022-10-18T19:39:34.654Z,101076.73
2022-10-18T19:42:05.922Z,101073.88
2022-10-18T19:44:36.269Z,101071.93
2022-10-18T19:47:06.352Z,101075.26
2022-10-18T19:49:34.207Z,101073.70
2022-10-18T19:52:01.950Z,101073.55
2022-10-18T19:54:29.917Z,101069.83
2022-10-18T19:56:57.549Z,101071.59
2022-10-18T19:59:25.402Z,101069.02
2022-10-18T20:01:53.379Z,101069.29
2022-10-18T20:04:21.234Z,101063.02
2022-10-18T20:06:49.241Z,101069.91
2022-10-18T20:09:20.442Z,101071.52
2022-10-18T20:11:48.535Z,101071.03
2022-10-18T20:14:16.149Z,101069.27
2022-10-18T20:16:43.912Z,101068.36
2022-10-18T20:19:11.730Z,101070.10
2022-10-18T20:21:40.088Z,101072.73
2022-10-18T20:24:09.405Z,101075.23
2022-10-18T20:26:37.150Z,101075.52
2022-10-18T20:29:05.213Z,101077.11
2022-10-18T20:31:37.180Z,101076.92
2022-10-18T20:34:07.581Z,101076.76
2022-10-18T20:36:35.550Z,101077.11
2022-10-18T20:39:04.098Z,101074.81
2022-10-18T20:41:34.354Z,101073.60
2022-10-18T20:44:05.305Z,101075.33
2022-10-18T20:46:36.065Z,101077.42
2022-10-18T20:49:05.698Z,101076.15
2022-10-18T20:51:33.924Z,101077.21
2022-10-18T20:56:35.386Z,101073.33
2022-10-18T20:59:05.551Z,101073.89
2022-10-18T21:01:34.854Z,101077.18
2022-10-18T21:04:05.566Z,101076.00
2022-10-18T21:06:43.872Z,101077.84
2022-10-18T21:09:15.264Z,101079.12
2022-10-18T21:11:45.843Z,101081.96
2022-10-18T21:14:16.185Z,101081.48
2022-10-18T21:16:44.751Z,101081.02
2022-10-18T21:19:15.983Z,101077.22
2022-10-18T21:21:46.520Z,101077.25
2022-10-18T21:24:14.702Z,101076.71
2022-10-18T21:26:42.522Z,101075.34
2022-10-18T21:29:11.132Z,101074.28
2022-10-18T21:31:41.326Z,101076.61
2022-10-18T21:34:15.746Z,101072.56
2022-10-18T21:36:45.141Z,101072.92
2022-10-18T21:39:16.192Z,101074.73
2022-10-18T21:41:44.342Z,101072.79
2022-10-18T21:44:12.208Z,101069.26
2022-10-18T21:46:40.637Z,101071.55
2022-10-18T21:49:09.555Z,101071.60
2022-10-18T21:51:37.869Z,101075.48
2022-10-18T21:54:08.138Z,101077.23
2022-10-18T21:56:36.683Z,101072.16
2022-10-18T21:59:04.928Z,101072.88
2022-10-18T22:01:38.247Z,101072.91
2022-10-18T22:04:16.293Z,101070.09
2022-10-18T22:06:44.140Z,101066.65
2022-10-18T22:09:12.155Z,101066.84
2022-10-18T22:11:46.373Z,101064.23
2022-10-18T22:14:14.308Z,101067.63
2022-10-18T22:16:42.083Z,101059.43
2022-10-18T22:19:10.260Z,101060.08
2022-10-18T22:21:38.179Z,101062.42
2022-10-18T22:24:08.599Z,101061.94
2022-10-18T22:26:39.173Z,101057.21
2022-10-18T22:29:10.943Z,101056.93
2022-10-18T22:31:40.669Z,101056.61
2022-10-18T22:34:12.072Z,101063.52
2022-10-18T22:36:40.324Z,101058.44
2022-10-18T22:39:08.225Z,101054.63
2022-10-18T22:41:36.836Z,101053.06
2022-10-18T22:44:04.573Z,101053.30
2022-10-18T22:46:33.039Z,101055.71
2022-10-18T22:49:01.255Z,101056.96
2022-10-18T22:51:29.007Z,101053.14
2022-10-18T22:53:57.026Z,101048.92
2022-10-18T22:56:25.089Z,101051.29
2022-10-18T22:58:53.012Z,101056.05
2022-10-18T23:01:22.554Z,101052.89
2022-10-18T23:03:58.619Z,101049.23
2022-10-18T23:06:32.175Z,101052.33
2022-10-18T23:09:05.021Z,101051.77
2022-10-18T23:11:34.301Z,101055.73
2022-10-18T23:14:03.806Z,101055.27
2022-10-18T23:16:33.218Z,101050.40
2022-10-18T23:19:01.111Z,101048.17
2022-10-18T23:21:29.117Z,101043.36
2022-10-18T23:23:57.848Z,101049.90
2022-10-18T23:26:27.786Z,101046.66
2022-10-18T23:28:56.230Z,101042.05
2022-10-18T23:31:29.850Z,101039.56
2022-10-18T23:34:00.059Z,101035.48
2022-10-18T23:36:28.757Z,101031.36
2022-10-18T23:38:56.952Z,101031.66
2022-10-18T23:41:24.993Z,101027.42
2022-10-18T23:43:52.796Z,101025.66
2022-10-18T23:46:21.001Z,101030.14
2022-10-18T23:48:49.488Z,101030.62
2022-10-18T23:51:17.913Z,101032.30
2022-10-18T23:53:45.935Z,101035.60
2022-10-18T23:56:15.998Z,101039.02
2022-10-18T23:58:45.257Z,101039.88
